Time;durP1;ratioP1;P1;durP2;ratioP2;P2;SDS_P1;SDS_P2;PMS_P1;PMS_P2;Temp;Humidity;BMP_temperature;BMP_pressure;BME280_temperature;BME280_humidity;BME280_pressure;Samples;Min_cycle;Max_cycle;Signal;HPM_P1;HPM_P2
2021/10/28 00:13:26;;;;;;;;;0.00;0.00;;;;;12.44;67.63;101527.44;5082493;28;45415;-81
2021/10/28 00:15:58;;;;;;;;;1.00;1.00;;;;;12.72;67.56;101574.81;5082774;28;45284;-81
2021/10/28 00:21:06;;;;;;;;;0.00;0.00;;;;;12.73;67.75;101565.22;5077564;28;45333;-80
2021/10/28 00:23:36;;;;;;;;;0.00;0.00;;;;;12.72;67.80;101568.72;5064820;28;45462;-80
2021/10/28 00:26:01;;;;;;;;;1.50;0.00;;;;;12.48;67.85;101520.50;5082641;28;45310;-81
2021/10/28 00:28:27;;;;;;;;;0.00;0.00;;;;;12.46;67.46;101515.25;5081777;28;46056;-81
2021/10/28 00:30:52;;;;;;;;;0.50;0.50;;;;;12.47;67.42;101505.72;5082447;28;45424;-81
2021/10/28 00:33:18;;;;;;;;;0.00;0.00;;;;;12.54;67.58;101510.16;5062596;28;45328;-80
2021/10/28 00:35:44;;;;;;;;;0.00;0.00;;;;;12.53;67.51;101511.03;5082112;28;45261;-81
2021/10/28 00:38:09;;;;;;;;;0.00;0.00;;;;;12.55;67.58;101506.66;5080220;28;47270;-81
2021/10/28 00:40:35;;;;;;;;;0.00;0.00;;;;;12.71;67.91;101530.38;5070164;28;45332;-81
2021/10/28 00:43:00;;;;;;;;;0.00;0.00;;;;;12.61;67.96;101514.59;5077151;28;45667;-81
2021/10/28 00:45:26;;;;;;;;;0.00;0.00;;;;;12.70;67.61;101536.44;5065536;28;45223;-80
2021/10/28 00:47:51;;;;;;;;;0.00;0.00;;;;;12.62;67.82;101516.34;5081959;28;45900;-83
2021/10/28 00:50:24;;;;;;;;;0.00;0.00;;;;;12.53;67.65;101498.81;5082031;28;45286;-85
2021/10/28 00:52:50;;;;;;;;;1.50;0.00;;;;;12.67;68.18;101524.22;5066748;28;45818;-87
2021/10/28 00:55:15;;;;;;;;;0.00;0.00;;;;;12.65;67.84;101524.22;5082186;28;45300;-79
2021/10/28 00:57:41;;;;;;;;;0.00;0.00;;;;;12.55;67.79;101514.50;5081903;28;45336;-80
2021/10/28 01:00:07;;;;;;;;;0.00;0.00;;;;;12.59;68.03;101518.06;5063823;28;45271;-80
2021/10/28 01:02:33;;;;;;;;;0.00;0.00;;;;;12.47;68.12;101501.34;5063935;28;45387;-80
2021/10/28 01:04:59;;;;;;;;;1.00;0.00;;;;;12.48;68.13;101499.63;5081783;28;45357;-82
2021/10/28 01:07:25;;;;;;;;;0.00;0.00;;;;;12.60;68.14;101519.78;5081021;28;46341;-79
2021/10/28 01:09:50;;;;;;;;;0.00;0.00;;;;;12.48;67.96;101497.91;5081657;28;45360;-81
2021/10/28 01:12:16;;;;;;;;;0.00;0.00;;;;;12.58;68.16;101513.66;5081822;28;45451;-80
2021/10/28 01:14:46;;;;;;;;;0.00;0.00;;;;;12.56;68.21;101511.06;5060616;28;45387;-79
2021/10/28 01:17:13;;;;;;;;;0.00;0.00;;;;;12.57;68.06;101502.34;5078773;28;45293;-81
2021/10/28 01:19:38;;;;;;;;;0.00;0.00;;;;;12.43;68.17;101480.41;5068470;28;45709;-80
2021/10/28 01:22:05;;;;;;;;;0.00;0.00;;;;;12.56;68.53;101499.72;5085375;28;45464;-80
2021/10/28 01:24:30;;;;;;;;;0.00;0.00;;;;;12.41;68.40;101475.19;5085067;28;45785;-80
2021/10/28 01:27:07;;;;;;;;;0.00;0.00;;;;;12.33;68.46;101459.41;5066511;28;47084;-80
2021/10/28 01:29:33;;;;;;;;;0.00;0.00;;;;;12.32;68.38;101467.22;5085105;28;45291;-80
2021/10/28 01:31:58;;;;;;;;;0.75;0.00;;;;;12.33;68.42;101466.34;5085238;28;45427;-79
2021/10/28 01:34:23;;;;;;;;;0.25;0.25;;;;;12.29;68.51;101462.84;5084466;28;45309;-80
2021/10/28 01:36:49;;;;;;;;;0.25;0.25;;;;;12.27;68.41;101448.88;5071192;28;46313;-80
2021/10/28 01:39:24;;;;;;;;;0.00;0.00;;;;;12.36;68.44;101474.22;5081711;28;45461;-81
2021/10/28 01:41:53;;;;;;;;;0.00;0.00;;;;;12.30;68.40;101464.59;5066570;28;45451;-80
2021/10/28 01:44:19;;;;;;;;;0.00;0.00;;;;;12.29;68.60;101463.69;5075377;28;45452;-82
2021/10/28 01:46:45;;;;;;;;;0.00;0.00;;;;;12.23;68.59;101457.53;5077548;28;45321;-83
2021/10/28 01:49:25;;;;;;;;;0.50;0.00;;;;;12.30;68.80;101469.81;5084464;28;45388;-82
2021/10/28 01:51:53;;;;;;;;;0.00;0.00;;;;;12.14;68.52;101445.22;5067106;28;45560;-82
2021/10/28 01:54:19;;;;;;;;;0.00;0.00;;;;;12.26;68.92;101465.41;5084996;28;45800;-83
2021/10/28 01:56:44;;;;;;;;;1.00;1.00;;;;;11.99;68.69;101435.41;5083300;28;46001;-82
2021/10/28 01:59:10;;;;;;;;;0.00;0.00;;;;;11.84;68.91;101415.19;5084674;28;45404;-82
2021/10/28 02:01:35;;;;;;;;;0.00;0.00;;;;;12.08;68.90;101460.81;5066607;28;45365;-82
2021/10/28 02:04:01;;;;;;;;;0.00;0.00;;;;;12.09;69.02;101453.00;5084745;28;45352;-82
2021/10/28 02:06:28;;;;;;;;;0.00;0.00;;;;;12.03;68.91;101443.31;5082953;28;48248;-83
2021/10/28 02:08:54;;;;;;;;;0.00;0.00;;;;;11.85;68.99;101417.84;5084566;28;45437;-82
2021/10/28 02:11:20;;;;;;;;;0.00;0.00;;;;;12.02;68.95;101457.22;5084534;28;45227;-82
2021/10/28 02:13:46;;;;;;;;;0.00;0.00;;;;;11.94;69.28;101437.09;5084782;28;45282;-82
2021/10/28 02:16:11;;;;;;;;;0.00;0.00;;;;;11.64;69.33;101387.13;5082609;28;48372;-82
2021/10/28 02:18:37;;;;;;;;;0.00;0.00;;;;;11.97;69.30;101439.75;5084425;28;45363;-82
2021/10/28 02:21:02;;;;;;;;;0.75;0.00;;;;;11.94;69.06;101434.50;5084393;28;45273;-82
2021/10/28 02:23:28;;;;;;;;;0.25;0.25;;;;;11.70;69.10;101408.06;5065947;28;45252;-82
2021/10/28 02:25:53;;;;;;;;;0.75;0.00;;;;;11.73;69.45;101430.72;5084253;28;46311;-87
2021/10/28 02:28:18;;;;;;;;;0.00;0.00;;;;;11.50;69.16;101379.09;5083116;28;45460;-82
2021/10/28 02:30:44;;;;;;;;;0.00;0.00;;;;;11.56;69.51;101388.72;5083513;28;45385;-82
2021/10/28 02:33:09;;;;;;;;;0.00;0.00;;;;;11.71;69.82;101414.16;5084325;28;45743;-83
2021/10/28 02:35:35;;;;;;;;;0.75;0.75;;;;;11.70;69.87;101409.81;5064819;28;46129;-82
2021/10/28 02:38:00;;;;;;;;;0.25;0.00;;;;;11.67;69.62;101418.44;5083996;28;45616;-83
2021/10/28 02:40:28;;;;;;;;;0.50;0.00;;;;;11.71;69.81;101417.66;5083698;28;45551;-83
2021/10/28 02:42:53;;;;;;;;;0.00;0.00;;;;;11.71;69.51;101414.16;5069859;28;45521;-82
2021/10/28 02:45:19;;;;;;;;;0.00;0.00;;;;;11.58;69.70;101393.09;5062967;28;47572;-82
2021/10/28 02:47:44;;;;;;;;;0.00;0.00;;;;;11.68;69.85;101404.56;5084132;28;45284;-82
2021/10/28 02:50:09;;;;;;;;;0.00;0.00;;;;;11.47;69.74;101371.22;5083794;28;45397;-82
2021/10/28 02:52:35;;;;;;;;;0.00;0.00;;;;;11.53;69.87;101374.81;5084293;28;45581;-82
2021/10/28 02:55:03;;;;;;;;;0.25;0.25;;;;;11.58;69.78;101395.69;5083867;28;45370;-82
2021/10/28 02:57:28;;;;;;;;;0.00;0.00;;;;;11.44;69.79;101368.56;5065762;28;45358;-82
2021/10/28 02:59:54;;;;;;;;;1.25;0.75;;;;;11.39;69.74;101366.75;5083859;28;45353;-81
2021/10/28 03:02:19;;;;;;;;;0.25;0.25;;;;;11.26;69.71;101349.16;5084152;28;45323;-82
2021/10/28 03:04:44;;;;;;;;;0.00;0.00;;;;;11.42;70.23;101375.50;5082737;28;46456;-82
2021/10/28 03:07:10;;;;;;;;;0.00;0.00;;;;;11.28;69.95;101357.91;5083516;28;45343;-82
2021/10/28 03:09:35;;;;;;;;;0.00;0.00;;;;;11.37;70.01;101378.03;5083804;28;45310;-82
2021/10/28 03:12:03;;;;;;;;;0.00;0.00;;;;;11.43;70.29;101390.28;5066172;28;45391;-82
2021/10/28 03:14:36;;;;;;;;;0.00;0.00;;;;;11.46;69.90;101404.25;5083419;28;45484;-82
2021/10/28 03:17:45;;;;;;;;;0.00;0.00;;;;;11.33;70.21;101366.66;5083960;28;45416;-82
2021/10/28 03:27:51;;;;;;;;;0.00;0.00;;;;;11.03;70.11;101354.91;5063162;28;45439;-83
2021/10/28 03:30:17;;;;;;;;;1.25;0.00;;;;;10.87;70.14;101331.19;5071824;28;45847;-82
2021/10/28 03:32:42;;;;;;;;;0.25;0.25;;;;;11.15;70.36;101377.69;5084154;28;45381;-82
2021/10/28 03:35:12;;;;;;;;;0.00;0.00;;;;;11.25;70.43;101387.41;5082483;28;45439;-82
2021/10/28 03:37:45;;;;;;;;;0.00;0.00;;;;;11.13;70.62;101358.53;5082994;28;45362;-82
2021/10/28 03:40:45;;;;;;;;;0.00;0.00;;;;;11.04;70.42;101341.03;5082655;28;45317;-81
2021/10/28 04:08:07;;;;;;;;;0.25;0.00;;;;;10.92;70.39;101320.84;5050711;28;46436;-83
2021/10/28 04:31:29;;;;;;;;;0.25;0.25;;;;;10.86;70.49;101316.41;5077421;28;45351;-82
2021/10/28 04:33:58;;;;;;;;;1.00;0.25;;;;;10.93;70.70;101320.00;5079771;28;45363;-81
2021/10/28 04:36:28;;;;;;;;;0.00;0.00;;;;;10.79;70.67;101304.16;5077630;28;45410;-82
2021/10/28 04:38:53;;;;;;;;;0.00;0.00;;;;;10.87;70.38;101318.16;5081712;28;46328;-82
2021/10/28 04:41:19;;;;;;;;;0.00;0.00;;;;;10.93;70.38;101325.19;5075668;28;45231;-82
2021/10/28 04:43:45;;;;;;;;;1.00;0.25;;;;;11.03;70.35;101337.53;5061298;28;45912;-82
2021/10/28 04:46:10;;;;;;;;;0.00;0.00;;;;;10.96;70.32;101320.03;5059915;28;45523;-82
2021/10/28 04:48:35;;;;;;;;;0.00;0.00;;;;;10.93;70.50;101314.78;5071533;28;47441;-82
2021/10/28 04:51:01;;;;;;;;;0.00;0.00;;;;;10.93;70.32;101321.75;5064759;28;45366;-82
2021/10/28 04:53:28;;;;;;;;;0.50;0.00;;;;;10.95;70.33;101320.00;5080310;28;45286;-81
2021/10/28 04:55:53;;;;;;;;;0.00;0.00;;;;;11.09;70.56;101346.31;5083683;28;45812;-81
2021/10/28 04:58:19;;;;;;;;;0.50;0.50;;;;;11.06;70.27;101351.47;5084960;28;46287;-81
2021/10/28 05:00:44;;;;;;;;;0.00;0.00;;;;;11.03;70.86;101360.13;5082151;28;45294;-79
2021/10/28 05:03:09;;;;;;;;;0.00;0.00;;;;;10.90;70.47;101341.66;5063083;28;45402;-79
2021/10/28 05:05:34;;;;;;;;;0.00;0.00;;;;;10.84;70.23;101325.91;5081698;28;46014;-79
2021/10/28 05:08:00;;;;;;;;;1.00;0.00;;;;;10.81;70.58;101320.66;5081660;28;46194;-79
2021/10/28 05:10:27;;;;;;;;;0.00;0.00;;;;;10.71;70.29;101306.63;5080675;28;45179;-79
2021/10/28 05:12:52;;;;;;;;;0.00;0.00;;;;;10.81;70.48;101328.47;5081533;28;45461;-81
2021/10/28 05:15:18;;;;;;;;;0.00;0.00;;;;;10.73;70.37;101325.75;5080916;28;45365;-79
2021/10/28 05:17:43;;;;;;;;;0.00;0.00;;;;;10.82;70.66;101342.38;5080246;28;45343;-80
2021/10/28 05:20:09;;;;;;;;;0.00;0.00;;;;;10.74;70.78;101331.81;5079912;28;45180;-79
2021/10/28 05:22:34;;;;;;;;;0.00;0.00;;;;;10.66;70.50;101325.63;5080509;28;45395;-79
2021/10/28 05:25:00;;;;;;;;;1.50;0.00;;;;;10.77;70.58;101350.09;5080542;28;45556;-78
2021/10/28 05:27:25;;;;;;;;;1.00;1.00;;;;;10.66;70.90;101333.44;5079441;28;45371;-81
2021/10/28 05:29:50;;;;;;;;;0.00;0.00;;;;;10.41;70.95;101294.75;5058561;28;45369;-80
2021/10/28 05:32:16;;;;;;;;;0.50;0.50;;;;;10.61;71.03;101338.53;5069235;28;45344;-79
2021/10/28 05:34:42;;;;;;;;;0.50;0.00;;;;;10.55;71.06;101330.63;5080691;28;45428;-80
2021/10/28 05:37:07;;;;;;;;;1.75;0.75;;;;;10.63;71.10;101349.88;5079991;28;45469;-80
2021/10/28 05:39:32;;;;;;;;;1.00;1.00;;;;;10.60;70.98;101348.06;5080088;28;45323;-78
2021/10/28 05:41:58;;;;;;;;;0.00;0.00;;;;;10.54;70.86;101329.75;5081056;28;45303;-80
2021/10/28 05:44:23;;;;;;;;;1.50;1.50;;;;;10.66;71.01;101359.47;5081299;28;45449;-80
2021/10/28 05:46:48;;;;;;;;;1.50;0.25;;;;;10.54;70.76;101326.28;5080984;28;45388;-79
2021/10/28 05:49:14;;;;;;;;;0.50;0.50;;;;;10.61;71.06;101349.84;5080677;28;45398;-80
2021/10/28 05:51:40;;;;;;;;;1.00;1.00;;;;;10.59;70.99;101350.66;5081085;28;45245;-78
2021/10/28 05:54:05;;;;;;;;;1.75;1.00;;;;;10.42;70.74;101325.16;5081215;28;45783;-80
2021/10/28 05:56:31;;;;;;;;;3.00;1.00;;;;;10.32;70.98;101310.22;5081360;28;45881;-80
2021/10/28 05:58:57;;;;;;;;;0.00;0.00;;;;;10.33;70.84;101323.28;5062739;28;45348;-83
2021/10/28 06:01:22;;;;;;;;;0.50;0.50;;;;;10.45;71.10;101350.38;5080651;28;45465;-79
2021/10/28 06:03:48;;;;;;;;;0.75;0.50;;;;;10.31;71.29;101326.66;5080913;28;45550;-79
2021/10/28 06:06:13;;;;;;;;;3.00;0.00;;;;;10.33;71.02;101327.59;5083769;28;45265;-79
2021/10/28 06:08:39;;;;;;;;;0.00;0.00;;;;;10.28;71.10;101324.91;5083866;28;45239;-80
2021/10/28 06:11:04;;;;;;;;;0.00;0.00;;;;;10.23;70.98;101313.53;5084043;27;45331;-80
2021/10/28 06:13:30;;;;;;;;;2.00;0.00;;;;;10.28;71.17;101332.69;5078351;28;45332;-80
2021/10/28 06:15:57;;;;;;;;;1.00;1.00;;;;;10.18;71.08;101313.44;5077424;28;45596;-80
2021/10/28 06:18:36;;;;;;;;;0.00;0.00;;;;;10.14;71.30;101307.28;5081280;28;45350;-79
2021/10/28 06:21:01;;;;;;;;;0.00;0.00;;;;;10.26;71.09;101334.38;5083786;28;45499;-80
2021/10/28 06:23:27;;;;;;;;;0.25;0.25;;;;;10.13;71.01;101313.34;5083873;28;45345;-80
2021/10/28 06:25:52;;;;;;;;;2.00;1.25;;;;;10.00;71.06;101293.13;5062162;28;47081;-80
2021/10/28 06:28:17;;;;;;;;;1.00;1.00;;;;;10.13;71.16;101323.75;5072313;28;45503;-80
2021/10/28 06:30:43;;;;;;;;;1.25;1.25;;;;;10.03;71.10;101306.19;5083472;28;45451;-80
2021/10/28 06:33:11;;;;;;;;;1.00;1.00;;;;;10.20;71.14;101336.88;5084150;28;45256;-80
2021/10/28 06:35:38;;;;;;;;;2.00;0.00;;;;;9.89;71.28;101277.31;5066433;28;45417;-80
2021/10/28 06:38:04;;;;;;;;;7.50;1.00;;;;;10.24;71.24;101334.38;5083702;28;45490;-79
2021/10/28 06:40:31;;;;;;;;;0.50;0.50;;;;;10.29;71.24;101344.84;5071411;28;45450;-80
2021/10/28 06:42:56;;;;;;;;;1.00;1.00;;;;;10.11;70.95;101304.63;5077710;28;45315;-82
2021/10/28 06:45:23;;;;;;;;;0.00;0.00;;;;;10.32;70.99;101337.09;5083801;28;46000;-84
2021/10/28 06:47:48;;;;;;;;;0.50;0.50;;;;;10.44;70.49;101353.84;5084764;28;45479;-78
2021/10/28 06:50:16;;;;;;;;;0.00;0.00;;;;;10.39;70.65;101335.53;5081616;28;45480;-79
2021/10/28 06:53:21;;;;;;;;;1.00;0.25;;;;;10.26;70.48;101324.88;5081949;27;45409;-79
2021/10/28 07:03:32;;;;;;;;;1.50;1.00;;;;;10.39;70.38;101338.97;5081693;28;45489;-78
2021/10/28 07:06:04;;;;;;;;;2.00;0.75;;;;;10.45;70.35;101348.69;5082555;28;46120;-76
2021/10/28 07:08:31;;;;;;;;;0.75;0.75;;;;;10.54;70.25;101355.78;5067998;28;45431;-76
2021/10/28 07:10:58;;;;;;;;;1.00;1.00;;;;;10.52;70.08;101349.66;5082136;28;45503;-75
2021/10/28 07:13:27;;;;;;;;;0.00;0.00;;;;;10.50;70.26;101333.13;5080197;28;45451;-76
2021/10/28 07:15:57;;;;;;;;;1.00;1.00;;;;;10.53;70.11;101330.59;5076592;28;46056;-76
2021/10/28 07:18:47;;;;;;;;;0.00;0.00;;;;;10.63;69.95;101347.28;5071930;28;45396;-75
2021/10/28 08:15:00;;;;;;;;;0.00;0.00;;;;;11.11;68.35;101339.38;5070071;28;45312;-78
2021/10/28 08:19:52;;;;;;;;;1.00;0.25;;;;;11.18;67.89;101319.53;5079785;28;46117;-80
2021/10/28 08:30:11;;;;;;;;;0.00;0.00;;;;;11.49;67.28;101296.50;5080525;28;45466;-79
2021/10/28 08:32:38;;;;;;;;;1.00;0.25;;;;;11.60;66.96;101300.13;5067286;28;45436;-81
2021/10/28 08:35:06;;;;;;;;;1.50;0.25;;;;;11.77;66.77;101302.09;5082898;28;45383;-81
2021/10/28 08:37:45;;;;;;;;;0.50;0.50;;;;;11.91;66.92;101297.91;5080847;28;45591;-78
2021/10/28 08:40:14;;;;;;;;;2.75;1.50;;;;;12.16;66.27;101319.09;5076140;28;45560;-78
2021/10/28 08:42:39;;;;;;;;;1.00;1.00;;;;;12.07;66.07;101294.66;5067719;28;45343;-79
2021/10/28 08:45:06;;;;;;;;;1.25;0.75;;;;;12.26;65.78;101316.59;5075718;28;45392;-77
2021/10/28 08:47:32;;;;;;;;;0.25;0.25;;;;;12.21;65.71;101285.22;5078953;28;45423;-77
2021/10/28 08:50:04;;;;;;;;;2.00;0.00;;;;;12.42;65.44;101299.38;5079533;28;45615;-77
2021/10/28 08:52:54;;;;;;;;;6.25;0.75;;;;;12.40;64.95;101286.28;5074830;28;45418;-79
2021/10/28 08:55:25;;;;;;;;;2.25;0.25;;;;;12.55;64.71;101300.34;5054234;28;45288;-78
2021/10/28 09:19:27;;;;;;;;;0.00;0.00;;;;;12.63;64.49;101301.31;5076904;28;45431;-80
2021/10/28 09:25:43;;;;;;;;;0.00;0.00;;;;;13.72;61.80;101243.63;5060630;28;45489;-80
2021/10/28 09:28:34;;;;;;;;;0.75;0.75;;;;;13.87;61.98;101270.75;5081338;28;45481;-78
2021/10/28 09:31:16;;;;;;;;;0.00;0.00;;;;;13.83;61.67;101258.50;5081541;28;45434;-80
2021/10/28 09:51:18;;;;;;;;;0.75;0.75;;;;;14.25;60.46;101245.50;5066352;28;45410;-80
2021/10/28 09:54:07;;;;;;;;;0.00;0.00;;;;;14.12;60.53;101227.16;5084170;28;45576;-81
2021/10/28 09:59:40;;;;;;;;;1.25;1.00;;;;;14.21;60.22;101246.38;5082065;28;45468;-81
2021/10/28 10:02:16;;;;;;;;;1.00;0.00;;;;;13.86;60.03;101195.69;5083143;28;45477;-81
2021/10/28 10:04:43;;;;;;;;;0.50;0.50;;;;;14.19;60.02;101242.00;5084523;28;45349;-80
2021/10/28 10:07:12;;;;;;;;;1.00;0.00;;;;;14.19;60.11;101236.75;5082938;28;45322;-79
2021/10/28 10:09:38;;;;;;;;;1.00;1.00;;;;;14.10;60.07;101215.81;5080477;28;45332;-79
2021/10/28 10:12:05;;;;;;;;;2.75;0.00;;;;;14.29;60.29;101244.66;5063936;28;45239;-80
2021/10/28 10:14:35;;;;;;;;;1.00;0.00;;;;;14.30;59.90;101233.28;5085206;28;45410;-80
2021/10/28 10:17:01;;;;;;;;;0.25;0.25;;;;;14.00;60.06;101166.94;5084476;28;45195;-80
2021/10/28 10:19:36;;;;;;;;;1.25;0.50;;;;;14.47;59.86;101216.72;5080498;28;45309;-80
2021/10/28 10:22:20;;;;;;;;;1.00;0.00;;;;;14.32;59.63;101185.31;5083570;28;45248;-81
2021/10/28 11:33:41;;;;;;;;;0.75;0.75;;;;;15.47;57.66;101094.13;5076625;28;45554;-82
2021/10/28 12:44:42;;;;;;;;;0.00;0.00;;;;;16.40;56.33;100966.44;5078075;28;45806;-79
2021/10/28 13:49:54;;;;;;;;;0.00;0.00;;;;;17.16;53.96;100845.34;5080783;28;45419;-78
2021/10/28 14:37:39;;;;;;;;;0.00;0.00;;;;;18.21;49.73;100816.13;5083402;28;45266;-80
2021/10/28 15:37:32;;;;;;;;;0.00;0.00;;;;;17.60;49.08;100788.41;5077380;28;45288;-78
2021/10/28 15:40:11;;;;;;;;;0.00;0.00;;;;;17.37;48.93;100759.91;5078461;28;45452;-78
2021/10/28 16:01:17;;;;;;;;;0.00;0.00;;;;;16.88;49.39;100738.84;5071204;28;45422;-78
2021/10/28 16:22:52;;;;;;;;;0.25;0.25;;;;;16.56;50.49;100712.22;5067312;28;45753;-79
2021/10/28 16:25:17;;;;;;;;;0.00;0.00;;;;;16.74;51.06;100746.09;5070372;28;45487;-78
2021/10/28 16:27:43;;;;;;;;;0.00;0.00;;;;;16.53;50.91;100722.78;5070680;28;46517;-78
2021/10/28 16:30:09;;;;;;;;;0.00;0.00;;;;;16.56;51.03;100721.84;5048855;28;46404;-78
2021/10/28 16:32:35;;;;;;;;;0.00;0.00;;;;;16.51;50.39;100719.28;5069149;28;45343;-80
2021/10/28 16:35:05;;;;;;;;;0.00;0.00;;;;;16.51;50.44;100721.91;5077730;27;45348;-84
2021/10/28 16:37:31;;;;;;;;;0.00;0.00;;;;;16.54;50.69;100726.28;5077696;27;45402;-80
2021/10/28 16:39:56;;;;;;;;;0.00;0.00;;;;;16.38;51.14;100710.75;5075540;28;48019;-78
2021/10/28 16:42:22;;;;;;;;;0.50;0.50;;;;;16.18;51.25;100675.19;5073416;28;45370;-79
2021/10/28 16:44:47;;;;;;;;;0.00;0.00;;;;;16.44;51.23;100718.53;5070175;28;45597;-79
2021/10/28 16:47:13;;;;;;;;;0.00;0.00;;;;;16.14;51.48;100670.00;5075710;28;46868;-79
2021/10/28 16:49:38;;;;;;;;;0.00;0.00;;;;;16.36;51.04;100714.31;5063780;28;45511;-79
2021/10/28 16:52:04;;;;;;;;;1.00;1.00;;;;;16.38;51.42;100718.63;5069561;28;45399;-79
2021/10/28 16:54:32;;;;;;;;;0.00;0.00;;;;;16.14;51.29;100691.00;5071162;28;45414;-81
2021/10/28 16:56:58;;;;;;;;;0.00;0.00;;;;;16.25;51.53;100706.59;5078496;28;45792;-83
2021/10/28 16:59:25;;;;;;;;;0.00;0.00;;;;;16.08;51.72;100684.94;5077817;28;46608;-78
2021/10/28 17:01:51;;;;;;;;;0.00;0.00;;;;;15.99;51.49;100671.97;5071835;28;45552;-86
2021/10/28 17:04:16;;;;;;;;;0.00;0.00;;;;;15.78;51.65;100646.88;5062703;28;45471;-81
2021/10/28 17:06:41;;;;;;;;;0.00;0.00;;;;;16.17;51.88;100707.56;5061551;28;45236;-80
2021/10/28 17:09:07;;;;;;;;;0.00;0.00;;;;;16.15;51.85;100716.38;5076949;28;47064;-80
2021/10/28 17:11:34;;;;;;;;;0.00;0.00;;;;;16.00;52.02;100706.97;5074436;28;45477;-80
2021/10/28 17:14:01;;;;;;;;;0.00;0.00;;;;;16.14;51.76;100727.78;5077554;28;45215;-80
2021/10/28 17:16:26;;;;;;;;;0.00;0.00;;;;;15.99;52.23;100707.84;5072932;28;45403;-79
2021/10/28 17:18:52;;;;;;;;;2.00;0.00;;;;;16.08;52.33;100737.47;5071564;28;45655;-79
2021/10/28 17:21:18;;;;;;;;;0.50;0.25;;;;;15.90;52.36;100707.03;5069550;28;45537;-80
2021/10/28 17:23:48;;;;;;;;;0.00;0.00;;;;;15.80;52.16;100693.19;5052998;28;45573;-80
2021/10/28 17:26:14;;;;;;;;;0.00;0.00;;;;;15.67;52.21;100673.25;5072048;28;45457;-80
2021/10/28 17:28:40;;;;;;;;;0.00;0.00;;;;;15.97;52.20;100726.25;5072492;28;47032;-79
2021/10/28 17:31:08;;;;;;;;;0.00;0.00;;;;;15.89;52.34;100721.06;5070647;28;45611;-79
2021/10/28 17:33:34;;;;;;;;;0.00;0.00;;;;;15.64;52.58;100679.41;5072819;28;45393;-80
2021/10/28 17:36:00;;;;;;;;;0.00;0.00;;;;;15.91;52.74;100735.06;5080342;28;45169;-80
2021/10/28 17:38:28;;;;;;;;;2.50;1.00;;;;;15.80;52.99;100708.94;5053412;28;46314;-79
2021/10/28 17:40:53;;;;;;;;;0.00;0.00;;;;;15.83;52.73;100710.66;5078637;28;45328;-80
2021/10/28 17:43:21;;;;;;;;;1.00;0.00;;;;;15.86;52.97;100723.72;5070531;28;45274;-81
2021/10/28 17:45:55;;;;;;;;;0.00;0.00;;;;;15.84;52.96;100729.00;5073414;28;45292;-80
2021/10/28 17:48:20;;;;;;;;;0.50;0.50;;;;;15.71;53.29;100709.06;5079826;28;46151;-80
2021/10/28 17:50:46;;;;;;;;;0.75;0.75;;;;;15.69;53.48;100701.19;5076828;28;45532;-80
2021/10/28 17:53:11;;;;;;;;;0.00;0.00;;;;;15.80;53.36;100726.44;5070993;28;45276;-79
2021/10/28 17:55:37;;;;;;;;;0.75;0.75;;;;;15.77;53.65;100722.09;5080239;28;45342;-80
2021/10/28 17:58:02;;;;;;;;;0.00;0.00;;;;;15.49;53.64;100677.88;5061483;28;48260;-80
2021/10/28 18:00:28;;;;;;;;;0.00;0.00;;;;;15.58;53.44;100690.00;5082121;28;45337;-80
2021/10/28 18:02:55;;;;;;;;;0.00;0.00;;;;;15.68;53.66;100703.88;5082088;28;45478;-80
2021/10/28 18:05:22;;;;;;;;;0.00;0.00;;;;;15.71;53.50;100714.31;5083138;28;45317;-80
2021/10/28 18:07:49;;;;;;;;;0.00;0.00;;;;;15.69;53.56;100716.09;5081976;28;46040;-81
2021/10/28 18:10:15;;;;;;;;;1.75;0.75;;;;;15.66;53.68;100721.38;5082040;28;45383;-80
2021/10/28 18:12:43;;;;;;;;;2.50;0.50;;;;;15.66;54.01;100710.88;5062706;28;45489;-81
2021/10/28 18:15:09;;;;;;;;;2.00;0.00;;;;;15.57;53.83;100699.63;5082858;28;45685;-80
2021/10/28 18:17:35;;;;;;;;;0.00;0.00;;;;;15.58;54.27;100714.47;5064036;28;48424;-80
2021/10/28 18:20:15;;;;;;;;;0.00;0.00;;;;;15.30;54.25;100669.34;5077088;28;45417;-80
2021/10/28 18:22:43;;;;;;;;;1.00;0.00;;;;;15.33;54.31;100683.31;5070664;28;45264;-77
2021/10/28 18:25:10;;;;;;;;;0.75;0.75;;;;;14.93;54.16;100607.75;5077465;28;45509;-80
2021/10/28 18:27:39;;;;;;;;;0.00;0.00;;;;;15.54;54.40;100712.78;5076435;28;46369;-79
2021/10/28 18:30:06;;;;;;;;;0.00;0.00;;;;;15.52;54.25;100706.69;5083436;28;45481;-79
2021/10/28 18:32:31;;;;;;;;;1.00;0.00;;;;;15.28;54.45;100668.53;5083381;28;45465;-80
2021/10/28 18:34:57;;;;;;;;;0.75;0.75;;;;;15.31;54.35;100678.94;5083426;28;45379;-79
2021/10/28 18:37:22;;;;;;;;;0.00;0.00;;;;;15.43;54.40;100702.41;5064762;28;48100;-77
2021/10/28 18:39:50;;;;;;;;;0.00;0.00;;;;;15.48;54.77;100711.97;5077446;28;45191;-80
2021/10/28 18:42:16;;;;;;;;;0.00;0.00;;;;;15.31;54.91;100686.81;5081660;28;45438;-80
2021/10/28 18:44:41;;;;;;;;;0.00;0.00;;;;;15.35;54.83;100691.16;5064490;28;46510;-81
2021/10/28 18:47:08;;;;;;;;;1.00;0.00;;;;;15.38;54.79;100699.00;5076835;28;45482;-81
2021/10/28 18:49:33;;;;;;;;;0.00;0.00;;;;;15.20;55.29;100666.84;5080707;28;45392;-81
2021/10/28 18:51:58;;;;;;;;;0.00;0.00;;;;;15.09;54.89;100649.53;5062452;28;45676;-81
2021/10/28 18:54:24;;;;;;;;;0.00;0.00;;;;;15.36;54.91;100690.28;5080118;28;45301;-83
2021/10/28 18:56:49;;;;;;;;;1.00;1.00;;;;;15.36;55.24;100686.75;5064658;28;47205;-83
2021/10/28 18:59:16;;;;;;;;;0.00;0.00;;;;;15.25;55.26;100668.56;5063125;28;45341;-83
2021/10/28 19:01:41;;;;;;;;;0.00;0.00;;;;;15.01;55.28;100634.72;5063200;28;45430;-84
2021/10/28 19:04:07;;;;;;;;;1.00;1.00;;;;;15.18;55.39;100667.75;5081901;28;45145;-83
2021/10/28 19:06:32;;;;;;;;;0.25;0.25;;;;;14.98;55.41;100629.53;5063047;28;46158;-83
2021/10/28 19:08:58;;;;;;;;;0.25;0.25;;;;;15.01;55.55;100637.34;5080445;28;45324;-85
2021/10/28 19:11:26;;;;;;;;;0.00;0.00;;;;;14.85;55.46;100613.06;5081313;28;45539;-85
2021/10/28 19:13:52;;;;;;;;;0.00;0.00;;;;;15.26;55.38;100681.66;5083097;28;45441;-87
2021/10/28 19:16:17;;;;;;;;;0.00;0.00;;;;;15.16;55.46;100659.03;5079955;28;45695;-81
2021/10/28 19:18:44;;;;;;;;;3.50;1.50;;;;;15.08;55.42;100646.03;5081340;28;45398;-82
2021/10/28 19:21:10;;;;;;;;;1.25;0.00;;;;;14.84;55.53;100613.09;5081596;28;45662;-82
2021/10/28 19:23:38;;;;;;;;;0.75;0.75;;;;;15.08;55.66;100651.25;5079818;28;45266;-82
2021/10/28 19:26:03;;;;;;;;;0.50;0.00;;;;;15.18;55.78;100666.00;5083941;28;45326;-83
2021/10/28 19:28:29;;;;;;;;;2.75;0.25;;;;;14.78;55.55;100608.78;5078959;28;45598;-87
2021/10/28 19:31:00;;;;;;;;;0.00;0.00;;;;;15.14;56.03;100661.69;5080121;28;45454;-80
2021/10/28 19:33:49;;;;;;;;;2.75;1.25;;;;;15.12;56.10;100658.19;5065838;28;45259;-81
2021/10/28 19:36:18;;;;;;;;;0.75;0.75;;;;;14.89;55.85;100621.78;5080565;28;45351;-81
2021/10/28 19:46:41;;;;;;;;;0.00;0.00;;;;;14.96;56.29;100641.78;5071575;28;45541;-82
2021/10/28 19:49:08;;;;;;;;;0.00;0.00;;;;;14.88;56.30;100630.53;5051957;28;45323;-80
2021/10/28 19:51:34;;;;;;;;;0.00;0.00;;;;;14.76;56.34;100614.00;5069167;28;45417;-87
2021/10/28 19:54:00;;;;;;;;;1.00;1.00;;;;;14.88;56.48;100634.00;5072147;28;45240;-80
2021/10/28 19:56:26;;;;;;;;;1.00;0.00;;;;;14.79;56.56;100629.72;5067445;28;46253;-81
2021/10/28 19:58:57;;;;;;;;;0.25;0.25;;;;;14.85;56.70;100633.19;5078515;28;45396;-79
2021/10/28 20:20:13;;;;;;;;;1.00;0.00;;;;;14.60;57.07;100623.78;5067310;28;45300;-77
2021/10/28 20:22:42;;;;;;;;;0.00;0.00;;;;;14.68;57.21;100640.28;5059472;28;45451;-78
2021/10/28 20:25:12;;;;;;;;;0.00;0.00;;;;;14.68;57.02;100636.81;5080628;28;45366;-77
2021/10/28 20:27:40;;;;;;;;;0.00;0.00;;;;;14.53;57.19;100616.88;5079438;28;46313;-77
2021/10/28 20:30:05;;;;;;;;;0.00;0.00;;;;;14.49;57.17;100610.78;5080173;28;45599;-77
2021/10/28 20:32:31;;;;;;;;;0.50;0.50;;;;;14.50;57.23;100614.28;5080693;28;45384;-78
2021/10/28 20:35:10;;;;;;;;;0.00;0.00;;;;;14.62;57.46;100637.75;5062775;28;45416;-78
2021/10/28 20:37:37;;;;;;;;;0.00;0.00;;;;;14.58;57.51;100622.94;5080901;28;45580;-80
2021/10/28 20:40:06;;;;;;;;;0.00;0.00;;;;;14.59;57.55;100635.16;5080236;28;45524;-77